Time;durP1;ratioP1;P1;durP2;ratioP2;P2;SDS_P1;SDS_P2;PMS_P1;PMS_P2;Temp;Humidity;BMP_temperature;BMP_pressure;BME280_temperature;BME280_humidity;BME280_pressure;Samples;Min_cycle;Max_cycle;Signal;HPM_P1;HPM_P2
2023/05/06 00:00:34;;;;;;;2.13;1.60;;;;;;;1.47;50.13;100427.00;5096819;28;20024;-58
2023/05/06 00:03:00;;;;;;;2.28;1.13;;;;;;;1.46;50.16;100425.28;5096532;28;20358;-61
2023/05/06 00:05:26;;;;;;;2.70;1.55;;;;;;;1.43;50.29;100430.63;5096393;28;20359;-59
2023/05/06 00:07:52;;;;;;;3.08;1.38;;;;;;;1.36;50.62;100414.16;5096655;28;20056;-59
2023/05/06 00:10:18;;;;;;;2.80;1.40;;;;;;;1.34;50.86;100436.22;5078654;28;20035;-59
2023/05/06 00:12:43;;;;;;;2.72;1.60;;;;;;;1.32;50.82;100432.75;5079024;28;20474;-59
2023/05/06 00:15:10;;;;;;;2.92;1.45;;;;;;;1.27;51.53;100446.97;5096499;28;20032;-61
2023/05/06 00:17:35;;;;;;;2.38;1.60;;;;;;;1.27;51.59;100438.19;5096525;28;20036;-59
2023/05/06 00:20:02;;;;;;;2.03;1.65;;;;;;;1.19;52.07;100430.50;5096610;28;20110;-60
2023/05/06 00:22:30;;;;;;;1.60;1.40;;;;;;;1.17;51.98;100439.41;5096283;28;20031;-60
2023/05/06 00:24:56;;;;;;;2.08;1.38;;;;;;;1.16;51.98;100437.69;5096073;28;20028;-59
2023/05/06 00:27:21;;;;;;;2.40;1.92;;;;;;;1.11;52.24;100435.19;5096374;28;20044;-59
2023/05/06 00:29:47;;;;;;;3.35;2.05;;;;;;;1.07;52.66;100438.81;5096607;28;20027;-58
2023/05/06 00:32:12;;;;;;;2.88;1.60;;;;;;;1.05;52.70;100435.38;5078352;28;20040;-59
2023/05/06 00:34:38;;;;;;;3.22;1.70;;;;;;;1.00;52.70;100431.13;5095835;28;20032;-61
2023/05/06 00:37:03;;;;;;;3.08;1.60;;;;;;;0.98;53.19;100432.94;5096224;28;20152;-59
2023/05/06 00:39:29;;;;;;;4.13;1.40;;;;;;;0.91;53.48;100427.91;5096173;28;20027;-60
2023/05/06 00:42:02;;;;;;;4.90;2.30;;;;;;;0.95;53.51;100434.78;5095968;28;20051;-58
2023/05/06 00:44:28;;;;;;;2.78;1.55;;;;;;;0.88;53.79;100438.53;5095674;28;20028;-58
2023/05/06 00:46:55;;;;;;;3.58;1.80;;;;;;;0.83;54.41;100436.03;5095825;28;20158;-58
2023/05/06 00:49:22;;;;;;;2.45;1.42;;;;;;;0.79;54.77;100439.69;5095787;28;20032;-61
2023/05/06 00:51:48;;;;;;;2.03;1.30;;;;;;;0.68;54.44;100427.66;5095740;28;20024;-57
2023/05/06 00:54:14;;;;;;;2.80;1.67;;;;;;;0.64;55.02;100433.94;5095320;28;20028;-60
2023/05/06 00:56:40;;;;;;;2.08;1.50;;;;;;;0.22;55.40;100366.66;5095424;28;20339;-59
2023/05/06 00:59:06;;;;;;;2.00;1.52;;;;;;;0.67;55.58;100440.91;5095445;28;20024;-59
2023/05/06 01:01:32;;;;;;;4.35;1.45;;;;;;;0.65;55.08;100442.72;5095425;28;20028;-60
2023/05/06 01:03:58;;;;;;;1.92;1.42;;;;;;;0.61;55.31;100441.94;5095417;28;20031;-60
2023/05/06 01:06:51;;;;;;;2.50;1.63;;;;;;;0.63;55.63;100445.41;5077288;28;20135;-58
2023/05/06 01:09:22;;;;;;;3.53;1.50;;;;;;;0.55;56.38;100442.13;5095488;28;20553;-56
2023/05/06 01:12:06;;;;;;;3.58;1.50;;;;;;;0.54;56.49;100443.03;5095401;28;20042;-58
2023/05/06 01:14:47;;;;;;;2.63;1.80;;;;;;;0.52;56.37;100452.75;5095173;28;20482;-60
2023/05/06 01:17:17;;;;;;;2.88;1.45;;;;;;;0.52;56.92;100453.63;5095098;28;20105;-58
2023/05/06 01:19:57;;;;;;;3.90;1.50;;;;;;;0.56;56.47;100454.41;5095221;28;20062;-59
2023/05/06 01:22:25;;;;;;;1.75;1.27;;;;;;;0.49;57.13;100455.50;5094924;28;20039;-58
2023/05/06 01:24:51;;;;;;;4.15;1.60;;;;;;;0.45;57.70;100453.81;5094944;28;20467;-60
2023/05/06 01:27:17;;;;;;;2.03;1.10;;;;;;;0.44;57.21;100458.25;5095395;28;20118;-59
2023/05/06 01:29:45;;;;;;;2.38;1.30;;;;;;;0.39;58.07;100450.47;5060491;28;20355;-60
2023/05/06 01:32:27;;;;;;;2.75;1.15;;;;;;;0.46;57.66;100447.66;5094756;28;20040;-60
2023/05/06 01:35:11;;;;;;;1.50;1.33;;;;;;;0.47;57.67;100454.63;5095098;28;20028;-60
2023/05/06 01:37:52;;;;;;;1.52;1.20;;;;;;;0.49;57.70;100458.13;5076958;28;20036;-60
2023/05/06 01:40:19;;;;;;;2.60;1.20;;;;;;;0.37;58.32;100449.66;5094868;28;20028;-60
2023/05/06 01:42:48;;;;;;;1.70;1.40;;;;;;;0.35;58.68;100451.47;5077306;28;20052;-60
2023/05/06 01:45:15;;;;;;;2.63;1.70;;;;;;;0.33;58.46;100448.00;5094589;28;20032;-59
2023/05/06 01:47:44;;;;;;;1.85;1.15;;;;;;;0.38;59.09;100456.63;5094482;28;20036;-60
2023/05/06 01:50:10;;;;;;;2.10;1.23;;;;;;;0.38;59.21;100456.63;5094511;28;20034;-61
2023/05/06 01:52:36;;;;;;;1.80;1.13;;;;;;;0.26;58.97;100422.75;5094523;28;20122;-60
2023/05/06 01:55:01;;;;;;;2.20;1.40;;;;;;;0.48;59.27;100461.63;5094624;28;20032;-59
2023/05/06 01:57:29;;;;;;;2.35;1.20;;;;;;;0.57;59.11;100464.03;5094335;28;20035;-59
2023/05/06 01:59:54;;;;;;;1.50;1.30;;;;;;;0.66;58.65;100450.56;5094240;28;20020;-60
2023/05/06 02:02:20;;;;;;;2.05;1.17;;;;;;;0.81;58.22;100464.22;5094745;28;20435;-61
2023/05/06 02:04:45;;;;;;;1.30;1.10;;;;;;;0.79;58.68;100460.78;5094303;28;20024;-62
2023/05/06 02:07:11;;;;;;;1.48;1.15;;;;;;;0.80;58.60;100463.34;5093929;28;20525;-60
2023/05/06 02:09:37;;;;;;;2.50;1.40;;;;;;;0.81;58.94;100461.59;5094063;28;20040;-61
2023/05/06 02:12:02;;;;;;;1.95;1.25;;;;;;;0.79;58.75;100469.53;5094139;28;20111;-60
2023/05/06 02:14:29;;;;;;;1.50;1.30;;;;;;;0.82;58.46;100460.66;5094022;28;20206;-59
2023/05/06 02:16:55;;;;;;;1.90;1.33;;;;;;;0.77;58.97;100470.50;5093444;28;20112;-57
2023/05/06 02:19:20;;;;;;;2.20;1.38;;;;;;;0.82;59.38;100466.78;5076262;28;20102;-58
2023/05/06 02:21:46;;;;;;;2.40;1.40;;;;;;;0.99;58.80;100481.25;5094004;28;20174;-59
2023/05/06 02:24:11;;;;;;;2.85;1.08;;;;;;;1.14;58.60;100467.59;5094074;28;20083;-57
2023/05/06 02:26:37;;;;;;;3.22;1.45;;;;;;;1.26;58.49;100470.75;5076046;28;20027;-61
2023/05/06 02:29:03;;;;;;;3.20;1.38;;;;;;;1.43;57.93;100475.47;5093574;28;20067;-62
2023/05/06 02:31:28;;;;;;;1.63;1.17;;;;;;;1.60;57.27;100474.09;5093991;28;20362;-61
2023/05/06 02:33:53;;;;;;;3.53;1.10;;;;;;;1.69;56.81;100482.56;5094351;28;20159;-61
2023/05/06 02:36:19;;;;;;;1.45;1.15;;;;;;;1.85;56.08;100479.41;5075783;28;20019;-62
2023/05/06 02:38:44;;;;;;;1.55;1.23;;;;;;;1.85;56.29;100480.25;5075643;28;20439;-61
2023/05/06 02:41:10;;;;;;;3.40;1.20;;;;;;;1.95;55.87;100480.81;5093837;28;20074;-60
2023/05/06 02:43:35;;;;;;;2.65;1.25;;;;;;;2.15;56.07;100480.13;5075825;28;20036;-60
2023/05/06 02:46:01;;;;;;;1.10;1.00;;;;;;;2.37;54.98;100484.63;5093364;28;20032;-60
2023/05/06 02:48:26;;;;;;;2.60;1.30;;;;;;;2.63;54.08;100488.13;5093334;28;20358;-61
2023/05/06 02:50:52;;;;;;;1.80;1.17;;;;;;;2.82;53.69;100490.06;5093399;28;20038;-58
2023/05/06 02:53:17;;;;;;;1.33;1.20;;;;;;;2.99;53.37;100485.03;5093274;28;20461;-60
2023/05/06 02:55:43;;;;;;;3.05;1.05;;;;;;;3.19;52.57;100486.03;5093354;28;20060;-60
2023/05/06 02:58:08;;;;;;;1.20;1.10;;;;;;;3.26;51.89;100476.06;5093163;28;20366;-58
2023/05/06 03:00:34;;;;;;;1.75;1.10;;;;;;;3.48;51.72;100497.25;5075399;28;20035;-59
2023/05/06 03:02:59;;;;;;;1.60;1.00;;;;;;;3.58;51.20;100495.94;5093231;28;20101;-58
2023/05/06 03:05:25;;;;;;;3.50;1.17;;;;;;;3.76;50.81;100496.09;5058833;28;20193;-59
2023/05/06 03:07:51;;;;;;;1.58;0.98;;;;;;;3.87;50.18;100496.53;5092595;28;20663;-60
2023/05/06 03:10:17;;;;;;;2.03;1.08;;;;;;;3.97;49.21;100502.28;5092279;28;20036;-60
2023/05/06 03:12:42;;;;;;;2.17;1.08;;;;;;;3.99;49.35;100496.94;5092242;28;20032;-61
2023/05/06 03:15:08;;;;;;;2.80;1.08;;;;;;;3.94;48.99;100499.75;5092379;28;20032;-60
2023/05/06 03:17:34;;;;;;;1.10;0.90;;;;;;;4.04;49.48;100502.88;5074429;28;20028;-59
2023/05/06 03:20:00;;;;;;;1.63;0.98;;;;;;;4.21;47.97;100503.97;5092253;28;20064;-59
2023/05/06 03:22:26;;;;;;;2.38;1.20;;;;;;;4.22;47.94;100497.72;5092578;28;20078;-58
2023/05/06 03:24:51;;;;;;;1.08;0.90;;;;;;;4.24;48.41;100495.88;5091993;28;20032;-59
2023/05/06 03:27:17;;;;;;;1.80;1.00;;;;;;;4.19;48.00;100501.38;5091828;28;20501;-61
2023/05/06 03:29:42;;;;;;;1.42;0.95;;;;;;;4.22;47.85;100513.63;5090981;28;20038;-61
2023/05/06 03:32:07;;;;;;;1.10;1.00;;;;;;;4.25;47.62;100508.19;5092265;28;20039;-59
2023/05/06 03:34:33;;;;;;;5.57;1.00;;;;;;;4.21;47.56;100503.97;5091884;28;20024;-61
2023/05/06 03:36:59;;;;;;;3.05;1.20;;;;;;;4.38;46.41;100497.91;5092236;28;20347;-60
2023/05/06 03:39:24;;;;;;;1.65;1.10;;;;;;;4.83;46.11;100502.09;5092463;28;20028;-61
2023/05/06 03:41:50;;;;;;;2.47;1.08;;;;;;;5.38;44.84;100481.00;5092069;28;20028;-62
2023/05/06 03:44:15;;;;;;;2.00;1.00;;;;;;;6.74;42.02;100508.66;5091841;28;20120;-61
2023/05/06 03:46:41;;;;;;;3.53;1.10;;;;;;;7.90;38.73;100509.34;5091904;28;20033;-60
2023/05/06 03:49:07;;;;;;;2.17;0.90;;;;;;;8.44;37.51;100505.31;5091898;28;20058;-60
2023/05/06 03:51:34;;;;;;;4.63;1.33;;;;;;;8.72;36.89;100506.31;5092019;28;20111;-58
2023/05/06 03:54:00;;;;;;;1.80;1.00;;;;;;;8.66;36.35;100508.50;5091799;28;20024;-62
2023/05/06 03:56:25;;;;;;;4.63;0.82;;;;;;;8.54;36.90;100512.78;5092119;28;20111;-60
2023/05/06 03:58:52;;;;;;;1.38;0.90;;;;;;;8.28;37.09;100492.00;5092061;28;20034;-60
2023/05/06 04:01:18;;;;;;;2.55;1.10;;;;;;;8.37;36.65;100511.09;5091743;28;20039;-57
2023/05/06 04:03:43;;;;;;;1.00;0.70;;;;;;;9.11;35.74;100508.38;5091508;28;20035;-60
2023/05/06 04:06:09;;;;;;;1.02;0.90;;;;;;;10.51;33.25;100512.59;5041949;28;1420041;-61
2023/05/06 04:08:35;;;;;;;0.93;0.73;;;;;;;11.40;31.73;100509.91;5092713;28;20036;-58
2023/05/06 04:11:07;;;;;;;3.85;0.80;;;;;;;12.89;29.85;100509.41;5092657;28;20090;-60
2023/05/06 04:13:33;;;;;;;0.90;0.75;;;;;;;14.00;27.21;100506.78;5092416;28;20039;-61
2023/05/06 04:15:59;;;;;;;0.73;0.70;;;;;;;14.55;26.60;100511.09;5092795;28;20472;-61
2023/05/06 04:18:25;;;;;;;1.60;0.85;;;;;;;14.61;26.10;100507.88;5092714;28;20028;-60
2023/05/06 04:20:50;;;;;;;1.25;0.80;;;;;;;14.13;26.71;100507.44;5092817;28;20046;-60
2023/05/06 04:23:16;;;;;;;3.58;0.80;;;;;;;13.13;27.60;100516.50;5092443;28;20027;-59
2023/05/06 04:25:43;;;;;;;1.30;0.85;;;;;;;11.94;29.43;100524.69;5092303;28;20081;-60
2023/05/06 04:28:10;;;;;;;1.88;0.90;;;;;;;11.12;30.59;100526.16;5092830;28;20176;-61
2023/05/06 04:30:36;;;;;;;0.93;0.90;;;;;;;10.58;31.55;100524.59;5074937;28;20024;-59
2023/05/06 04:33:02;;;;;;;0.80;0.80;;;;;;;10.24;32.19;100527.72;5092256;28;20031;-61
2023/05/06 04:35:28;;;;;;;1.10;1.00;;;;;;;10.31;32.12;100525.50;5092361;28;20439;-61
2023/05/06 04:37:55;;;;;;;3.08;1.13;;;;;;;9.99;32.16;100523.19;5092512;28;20039;-60
2023/05/06 04:40:24;;;;;;;1.65;1.00;;;;;;;9.55;33.14;100530.53;5093361;28;20035;-61
2023/05/06 04:42:50;;;;;;;2.13;1.00;;;;;;;8.91;34.42;100537.19;5077658;28;20024;-59
2023/05/06 04:45:16;;;;;;;1.77;1.20;;;;;;;8.35;35.00;100535.19;5078040;28;20124;-63
2023/05/06 04:47:42;;;;;;;1.27;1.10;;;;;;;8.17;35.87;100542.50;5096005;28;20069;-60
2023/05/06 04:50:08;;;;;;;2.75;0.93;;;;;;;7.88;35.75;100540.59;5078291;28;20031;-62
2023/05/06 04:52:35;;;;;;;2.30;0.82;;;;;;;7.57;36.19;100514.81;5095867;28;20031;-59
2023/05/06 04:55:01;;;;;;;1.15;1.00;;;;;;;7.56;36.19;100553.06;5095898;28;20028;-61
2023/05/06 04:57:26;;;;;;;1.23;0.80;;;;;;;7.39;36.51;100533.59;5095805;28;20410;-61
2023/05/06 04:59:52;;;;;;;2.13;0.75;;;;;;;7.33;36.96;100533.91;5095624;28;20155;-60
2023/05/06 05:02:17;;;;;;;4.60;0.77;;;;;;;7.48;36.72;100537.56;5077726;28;20032;-59
2023/05/06 05:04:43;;;;;;;1.90;0.70;;;;;;;8.56;34.70;100521.53;5095806;28;20066;-59
2023/05/06 05:07:09;;;;;;;0.73;0.50;;;;;;;9.53;32.53;100538.63;5095455;28;20367;-59
2023/05/06 05:09:35;;;;;;;1.73;0.60;;;;;;;10.31;31.23;100528.19;5095548;28;20041;-60
2023/05/06 05:12:01;;;;;;;2.90;0.82;;;;;;;10.69;30.53;100538.09;5095783;28;20020;-59
2023/05/06 05:14:27;;;;;;;2.03;0.63;;;;;;;10.95;30.27;100526.50;5095320;28;20028;-61
2023/05/06 05:16:52;;;;;;;1.17;0.70;;;;;;;11.34;29.94;100527.28;5095164;28;20402;-62
2023/05/06 05:19:18;;;;;;;2.45;0.60;;;;;;;12.09;28.35;100533.44;5095437;28;20358;-61
2023/05/06 05:21:44;;;;;;;1.85;0.77;;;;;;;12.54;27.53;100500.47;5077347;28;20044;-61
2023/05/06 05:24:09;;;;;;;4.00;0.70;;;;;;;14.04;26.01;100529.75;5094963;28;20074;-61
2023/05/06 05:26:35;;;;;;;1.10;0.80;;;;;;;15.59;23.95;100532.53;5095109;28;20361;-61
2023/05/06 05:29:00;;;;;;;1.45;0.88;;;;;;;17.20;21.77;100523.97;5095256;28;20034;-59
2023/05/06 05:31:26;;;;;;;2.33;0.60;;;;;;;19.54;19.79;100517.44;5094789;28;20454;-60
2023/05/06 05:33:51;;;;;;;0.70;0.60;;;;;;;20.43;18.60;100525.88;5095025;28;20084;-62
2023/05/06 05:36:17;;;;;;;2.17;0.90;;;;;;;19.91;18.68;100527.06;5095046;28;20031;-61
2023/05/06 05:38:42;;;;;;;3.75;0.80;;;;;;;18.75;19.86;100518.47;5094723;28;20031;-61
2023/05/06 05:41:08;;;;;;;2.40;0.60;;;;;;;18.85;19.79;100512.91;5094959;28;20043;-62
2023/05/06 05:43:33;;;;;;;1.73;0.70;;;;;;;18.81;19.41;100523.22;5095278;28;20452;-60
2023/05/06 05:45:59;;;;;;;0.73;0.50;;;;;;;18.29;19.88;100524.06;5094725;28;20038;-60
2023/05/06 05:48:25;;;;;;;1.25;0.45;;;;;;;17.99;20.70;100531.56;5076852;28;20241;-61
2023/05/06 05:50:50;;;;;;;2.67;0.75;;;;;;;16.68;21.38;100533.38;5094709;28;20020;-61
2023/05/06 05:53:16;;;;;;;2.92;0.85;;;;;;;15.60;22.83;100536.94;5093721;28;20117;-60
2023/05/06 05:55:41;;;;;;;2.25;0.90;;;;;;;14.71;23.49;100534.91;5094839;28;20128;-61
2023/05/06 05:58:10;;;;;;;1.63;0.80;;;;;;;14.11;24.63;100541.72;5094596;28;20091;-60
2023/05/06 06:00:35;;;;;;;1.83;0.95;;;;;;;13.55;25.10;100543.63;5094488;28;20051;-60
2023/05/06 06:03:01;;;;;;;3.38;0.80;;;;;;;13.16;26.00;100537.75;5094556;28;20077;-59
2023/05/06 06:05:26;;;;;;;0.63;0.63;;;;;;;12.70;26.39;100543.13;5094333;28;20055;-58
2023/05/06 06:07:52;;;;;;;2.90;0.80;;;;;;;12.66;26.40;100548.84;5094161;28;20073;-59
2023/05/06 06:10:17;;;;;;;3.33;0.75;;;;;;;12.18;26.99;100558.75;5094369;28;20032;-62
2023/05/06 06:12:45;;;;;;;1.02;0.90;;;;;;;12.43;27.52;100557.72;5094272;28;20450;-60
2023/05/06 06:15:10;;;;;;;3.58;0.73;;;;;;;13.70;25.08;100546.88;5094257;28;20032;-58
2023/05/06 06:17:36;;;;;;;4.47;0.70;;;;;;;13.46;25.16;100552.41;5094078;28;20024;-60
2023/05/06 06:20:01;;;;;;;0.73;0.65;;;;;;;14.03;24.72;100546.91;5093887;28;20024;-61
2023/05/06 06:22:29;;;;;;;4.22;0.88;;;;;;;14.80;23.48;100544.03;5093837;28;20110;-60
2023/05/06 06:24:55;;;;;;;1.15;0.63;;;;;;;14.62;23.71;100537.41;5094163;28;20028;-60
2023/05/06 06:27:20;;;;;;;1.88;0.80;;;;;;;14.12;24.29;100551.50;5093889;28;20335;-61
2023/05/06 06:29:48;;;;;;;3.35;0.55;;;;;;;13.46;25.10;100549.72;5093698;28;20028;-60
2023/05/06 06:32:13;;;;;;;11.93;1.42;;;;;;;12.94;25.87;100560.97;5093900;28;20107;-60
2023/05/06 06:34:38;;;;;;;3.15;1.00;;;;;;;12.96;25.88;100567.06;5093751;28;20120;-61
2023/05/06 06:37:04;;;;;;;2.63;0.88;;;;;;;12.66;26.47;100567.63;5093922;28;20032;-60
2023/05/06 06:39:30;;;;;;;2.58;0.82;;;;;;;12.21;26.91;100571.94;5093515;28;20059;-61
2023/05/06 06:41:57;;;;;;;2.35;1.20;;;;;;;12.04;27.35;100565.13;5093555;28;20024;-60
2023/05/06 06:44:22;;;;;;;3.15;1.10;;;;;;;13.03;26.42;100573.69;5093228;28;20040;-60
2023/05/06 06:46:48;;;;;;;4.90;1.00;;;;;;;13.71;25.44;100569.25;5093558;28;20504;-58
2023/05/06 06:49:13;;;;;;;1.15;0.82;;;;;;;13.79;25.20;100566.78;5075670;28;20115;-59
2023/05/06 06:51:39;;;;;;;1.90;0.90;;;;;;;14.45;24.58;100567.63;5093643;28;20156;-61
2023/05/06 06:54:04;;;;;;;4.07;1.13;;;;;;;15.53;22.95;100572.72;5093648;28;20417;-61
2023/05/06 06:56:30;;;;;;;2.72;0.90;;;;;;;15.16;23.14;100569.63;5093382;28;20028;-61
2023/05/06 06:58:56;;;;;;;2.50;1.10;;;;;;;14.53;23.88;100577.75;5093398;28;20028;-59
2023/05/06 07:01:21;;;;;;;1.42;1.13;;;;;;;13.93;24.31;100566.50;5093269;28;20020;-60
2023/05/06 07:03:47;;;;;;;2.30;1.17;;;;;;;13.31;24.84;100570.63;5075317;28;20059;-63
2023/05/06 07:06:12;;;;;;;2.50;1.30;;;;;;;13.47;24.79;100594.47;5093181;28;20063;-61
2023/05/06 07:08:38;;;;;;;4.65;1.20;;;;;;;13.15;25.10;100600.56;5093549;28;20040;-61
2023/05/06 07:11:03;;;;;;;4.07;1.20;;;;;;;12.72;25.54;100610.19;5093257;28;20527;-61
2023/05/06 07:13:29;;;;;;;1.13;0.88;;;;;;;12.15;25.91;100618.88;5093141;28;20035;-60
2023/05/06 07:15:54;;;;;;;3.63;0.60;;;;;;;11.59;26.69;100614.00;5093493;28;20024;-61
2023/05/06 07:18:20;;;;;;;0.95;0.40;;;;;;;11.39;26.68;100623.47;5092997;28;20024;-62
2023/05/06 07:20:45;;;;;;;0.50;0.50;;;;;;;11.59;26.70;100609.50;5075210;28;20032;-63
2023/05/06 07:23:11;;;;;;;1.30;0.60;;;;;;;11.73;25.92;100607.63;5075598;28;20031;-64
2023/05/06 07:25:36;;;;;;;10.25;1.00;;;;;;;11.44;26.77;100611.44;5093120;28;20170;-62
2023/05/06 07:28:02;;;;;;;3.47;0.80;;;;;;;12.10;25.79;100621.06;5093224;28;20020;-61
2023/05/06 07:30:28;;;;;;;2.28;0.65;;;;;;;12.57;25.02;100612.22;5092987;28;20031;-61
2023/05/06 07:32:53;;;;;;;3.75;0.63;;;;;;;12.48;25.14;100605.72;5092885;28;20032;-60
2023/05/06 07:35:18;;;;;;;5.25;0.70;;;;;;;11.94;25.85;100610.56;5092633;28;20047;-60
2023/05/06 07:37:45;;;;;;;3.38;0.60;;;;;;;12.84;24.90;100613.75;5093007;28;20056;-61
2023/05/06 07:40:11;;;;;;;1.95;0.68;;;;;;;14.55;23.21;100611.66;5093305;28;20451;-63
2023/05/06 07:42:36;;;;;;;2.20;0.50;;;;;;;14.41;22.38;100612.81;5092819;28;20038;-61
2023/05/06 07:45:03;;;;;;;0.77;0.50;;;;;;;13.88;23.10;100619.84;5092761;28;20032;-61
2023/05/06 07:47:31;;;;;;;3.05;0.70;;;;;;;13.12;23.85;100604.34;5093119;28;20088;-62
2023/05/06 07:49:57;;;;;;;2.95;0.63;;;;;;;12.26;25.19;100614.53;5092898;28;20036;-61
2023/05/06 07:52:23;;;;;;;0.82;0.70;;;;;;;11.76;25.83;100624.38;5092698;28;20039;-62
2023/05/06 07:54:49;;;;;;;5.93;0.98;;;;;;;11.78;25.86;100621.56;5092678;28;20055;-64
2023/05/06 07:57:15;;;;;;;0.93;0.80;;;;;;;11.67;26.43;100616.13;5092552;28;20063;-62
2023/05/06 07:59:51;;;;;;;1.00;0.82;;;;;;;11.37;26.49;100615.53;5093000;28;20350;-61
2023/05/06 08:02:17;;;;;;;1.00;0.77;;;;;;;11.00;26.80;100610.97;5092493;28;20085;-62
2023/05/06 08:04:43;;;;;;;2.67;0.93;;;;;;;10.80;27.10;100619.53;5092610;28;20024;-62
2023/05/06 08:07:09;;;;;;;1.10;0.75;;;;;;;10.54;27.79;100631.06;5075152;28;20040;-62
2023/05/06 08:09:35;;;;;;;3.75;0.80;;;;;;;10.19;28.27;100626.22;5092634;28;20040;-62
2023/05/06 08:12:01;;;;;;;1.00;0.90;;;;;;;9.97;28.28;100621.44;5092764;28;20032;-63
2023/05/06 08:14:27;;;;;;;2.85;1.10;;;;;;;9.83;29.15;100622.31;5092496;28;20028;-61
2023/05/06 08:16:53;;;;;;;2.15;1.00;;;;;;;9.89;28.84;100620.13;5095924;28;20103;-60
2023/05/06 08:19:18;;;;;;;5.18;1.33;;;;;;;10.01;29.12;100623.81;5078849;28;20039;-60
2023/05/06 08:21:44;;;;;;;3.47;1.35;;;;;;;9.85;29.76;100618.56;5096683;28;20107;-62
2023/05/06 08:24:10;;;;;;;3.17;0.90;;;;;;;9.87;29.18;100622.00;5096453;28;20050;-61
2023/05/06 08:26:35;;;;;;;2.60;1.00;;;;;;;10.40;28.40;100613.25;5096324;28;20050;-60
2023/05/06 08:29:02;;;;;;;6.35;0.90;;;;;;;10.82;27.38;100607.75;5096471;28;20031;-62
2023/05/06 08:31:27;;;;;;;2.67;0.80;;;;;;;10.97;27.02;100621.03;5096089;28;20043;-61
2023/05/06 08:33:53;;;;;;;1.92;0.82;;;;;;;10.77;27.00;100583.94;5096312;28;20024;-62
2023/05/06 08:36:19;;;;;;;4.68;0.90;;;;;;;10.80;26.82;100608.81;5096041;28;20121;-62
2023/05/06 08:38:49;;;;;;;4.07;1.00;;;;;;;10.60;27.24;100619.06;5095921;28;20024;-60
2023/05/06 08:41:17;;;;;;;6.05;1.10;;;;;;;10.55;27.63;100624.75;5096294;28;20024;-62
2023/05/06 08:43:46;;;;;;;2.13;1.00;;;;;;;10.28;28.20;100622.06;5096178;28;20036;-62
2023/05/06 08:46:13;;;;;;;3.85;1.20;;;;;;;9.98;28.56;100617.78;5095784;28;20032;-60
2023/05/06 08:48:38;;;;;;;1.75;1.23;;;;;;;9.95;28.56;100612.66;5095593;28;20093;-61
2023/05/06 08:51:04;;;;;;;3.85;1.30;;;;;;;10.23;28.25;100610.81;5095533;28;20392;-61
2023/05/06 08:53:32;;;;;;;5.53;1.50;;;;;;;10.85;28.06;100601.31;5095784;28;20024;-61
2023/05/06 08:56:05;;;;;;;3.80;1.30;;;;;;;11.17;27.05;100617.81;5095571;28;20032;-61
2023/05/06 08:58:34;;;;;;;3.50;1.20;;;;;;;11.14;27.58;100618.03;5095620;28;20063;-59
2023/05/06 09:01:01;;;;;;;5.30;1.50;;;;;;;11.05;26.94;100608.81;5095654;28;20035;-61
2023/05/06 09:03:27;;;;;;;4.22;1.10;;;;;;;10.77;27.09;100607.22;5095616;28;20224;-61
2023/05/06 09:05:53;;;;;;;3.85;1.27;;;;;;;10.51;27.14;100614.34;5095142;28;20143;-61
2023/05/06 09:08:19;;;;;;;3.53;0.80;;;;;;;10.33;26.86;100611.91;5095548;28;20102;-61
2023/05/06 09:10:46;;;;;;;2.50;0.90;;;;;;;10.32;26.83;100612.88;5095667;28;20412;-60
2023/05/06 09:13:13;;;;;;;1.95;1.05;;;;;;;10.51;26.59;100585.75;5095072;28;20405;-62
2023/05/06 09:15:46;;;;;;;1.23;1.10;;;;;;;10.91;25.69;100612.44;5095222;28;20069;-61
2023/05/06 09:18:13;;;;;;;1.55;0.70;;;;;;;10.96;26.12;100612.13;5095163;28;20032;-63
2023/05/06 09:20:44;;;;;;;4.85;1.20;;;;;;;10.87;26.09;100602.06;5095161;28;20036;-61
2023/05/06 09:23:10;;;;;;;6.80;1.67;;;;;;;10.60;26.66;100598.50;5095084;28;20079;-61
2023/05/06 09:25:36;;;;;;;3.33;1.10;;;;;;;10.22;26.92;100601.06;5095095;28;20051;-61
2023/05/06 09:28:07;;;;;;;5.43;1.20;;;;;;;10.25;27.51;100619.59;5095211;28;20036;-62
2023/05/06 09:30:33;;;;;;;0.88;0.80;;;;;;;10.08;26.90;100583.25;5094662;28;20032;-60
2023/05/06 09:33:03;;;;;;;3.72;0.82;;;;;;;10.21;26.23;100613.59;5094537;28;20370;-60
2023/05/06 09:35:36;;;;;;;2.80;1.00;;;;;;;10.13;26.38;100608.75;5094743;28;20031;-62
2023/05/06 09:38:01;;;;;;;2.40;0.98;;;;;;;9.72;26.52;100610.50;5094435;28;20074;-61
2023/05/06 09:40:28;;;;;;;4.53;1.10;;;;;;;10.00;26.78;100616.72;5094032;28;20457;-61
2023/05/06 09:42:55;;;;;;;6.38;0.90;;;;;;;10.54;25.56;100623.03;5094774;28;20068;-60
2023/05/06 09:45:21;;;;;;;1.00;0.60;;;;;;;10.93;24.29;100607.00;5094078;28;20047;-61
2023/05/06 09:47:48;;;;;;;0.80;0.70;;;;;;;11.01;23.73;100610.00;5094562;28;20032;-60
2023/05/06 09:50:15;;;;;;;6.00;1.10;;;;;;;11.11;24.38;100610.22;5076345;28;20051;-59
2023/05/06 09:52:44;;;;;;;2.85;1.73;;;;;;;11.20;23.57;100624.78;5094170;28;20036;-61
2023/05/06 09:55:10;;;;;;;3.42;0.80;;;;;;;10.85;24.14;100628.09;5094328;28;20043;-59
2023/05/06 09:57:37;;;;;;;5.05;0.90;;;;;;;10.70;25.00;100630.00;5094211;28;20032;-60
2023/05/06 10:00:05;;;;;;;2.55;0.90;;;;;;;10.56;24.73;100636.31;5094132;28;20023;-61
2023/05/06 10:02:32;;;;;;;4.97;1.10;;;;;;;10.51;24.90;100623.25;5094384;28;20040;-61
2023/05/06 10:05:03;;;;;;;1.98;0.85;;;;;;;10.57;24.85;100630.84;5060171;28;20039;-60
2023/05/06 10:07:29;;;;;;;2.40;0.70;;;;;;;10.58;23.96;100629.88;5094133;28;20520;-61
2023/05/06 10:10:00;;;;;;;3.63;1.33;;;;;;;10.58;24.05;100621.84;5076595;28;20040;-61
2023/05/06 10:12:27;;;;;;;3.40;1.15;;;;;;;10.41;23.44;100631.03;5094304;28;20102;-60
2023/05/06 10:14:53;;;;;;;2.90;1.10;;;;;;;10.37;23.91;100624.16;5094325;28;20100;-62
2023/05/06 10:17:23;;;;;;;1.98;0.93;;;;;;;10.53;24.37;100625.81;5094518;28;20028;-62
2023/05/06 10:19:51;;;;;;;3.65;0.80;;;;;;;10.72;24.33;100614.69;5094117;28;20023;-61
2023/05/06 10:22:55;;;;;;;5.93;0.88;;;;;;;11.10;24.24;100616.53;5094279;28;20084;-63
2023/05/06 10:25:37;;;;;;;7.10;1.08;;;;;;;11.19;23.79;100612.34;5094110;28;20054;-59
2023/05/06 10:28:10;;;;;;;3.88;0.90;;;;;;;11.28;23.27;100608.16;5093695;28;20119;-61
2023/05/06 10:30:38;;;;;;;1.73;0.90;;;;;;;11.44;22.93;100608.75;5093695;28;20032;-60
2023/05/06 10:33:06;;;;;;;3.53;0.80;;;;;;;11.65;22.19;100601.97;5093957;28;20043;-62
2023/05/06 10:35:40;;;;;;;1.10;0.90;;;;;;;11.84;22.36;100609.53;5075677;28;20024;-61
2023/05/06 10:38:10;;;;;;;5.68;1.05;;;;;;;11.78;22.53;100618.88;5093310;28;20363;-61
2023/05/06 10:40:36;;;;;;;5.40;1.33;;;;;;;11.37;22.43;100618.22;5093751;28;20456;-61
2023/05/06 10:43:24;;;;;;;4.45;1.20;;;;;;;11.46;22.79;100614.91;5093808;28;20046;-61
2023/05/06 10:46:09;;;;;;;4.13;1.00;;;;;;;11.23;23.24;100619.19;5093636;28;20036;-62
2023/05/06 10:48:58;;;;;;;4.20;1.88;;;;;;;10.98;23.26;100610.22;5093569;28;20473;-60
2023/05/06 10:51:26;;;;;;;3.08;1.10;;;;;;;10.73;22.96;100609.22;5075549;28;20035;-61
2023/05/06 10:54:03;;;;;;;4.43;1.35;;;;;;;10.57;23.67;100608.56;5093587;28;20447;-57
2023/05/06 10:56:34;;;;;;;1.73;1.00;;;;;;;10.47;23.88;100611.88;5093329;28;20051;-60
2023/05/06 10:59:08;;;;;;;2.90;1.33;;;;;;;10.53;23.28;100612.41;5093212;28;20461;-61
2023/05/06 11:01:41;;;;;;;2.78;1.40;;;;;;;10.81;23.37;100614.06;5093050;28;20032;-60
2023/05/06 11:04:11;;;;;;;3.08;1.25;;;;;;;11.11;22.81;100612.03;5093397;28;20027;-62
2023/05/06 11:06:39;;;;;;;2.35;1.00;;;;;;;11.30;22.49;100607.06;5075202;28;20044;-61
2023/05/06 11:09:06;;;;;;;2.20;1.40;;;;;;;11.36;21.93;100613.81;5093211;28;20048;-61
2023/05/06 11:11:52;;;;;;;2.53;1.52;;;;;;;11.19;22.03;100617.72;5093123;28;20028;-61
2023/05/06 11:14:37;;;;;;;;;;;;;;;11.47;22.33;100626.47;5093579;28;20347;-61
2023/05/06 11:17:07;;;;;;;8.43;1.55;;;;;;;10.97;22.02;100624.56;5075028;28;19923;-62
2023/05/06 11:19:36;;;;;;;6.95;1.08;;;;;;;10.52;22.19;100592.81;5093154;28;20096;-61
2023/05/06 11:22:03;;;;;;;3.95;1.17;;;;;;;10.57;22.57;100630.84;5093490;28;20024;-61
2023/05/06 11:24:39;;;;;;;1.85;1.40;;;;;;;10.67;23.22;100620.38;5092884;28;20035;-61
2023/05/06 11:27:05;;;;;;;3.17;1.10;;;;;;;10.62;22.09;100603.78;5075225;28;20036;-61
2023/05/06 11:29:31;;;;;;;6.50;1.15;;;;;;;10.88;22.28;100622.53;5093049;28;20032;-61